createdAt,value
2019-01-06T00:02:14.515Z,2.90
2019-01-06T00:05:00.852Z,2.90
2019-01-06T00:07:42.866Z,2.97
2019-01-06T00:10:12.987Z,2.90
2019-01-06T00:12:59.129Z,3.10
2019-01-06T00:15:46.104Z,2.47
2019-01-06T00:18:19.058Z,2.80
2019-01-06T00:20:51.911Z,2.30
2019-01-06T00:23:21.951Z,2.87
2019-01-06T00:26:08.266Z,2.40
2019-01-06T00:28:47.831Z,2.90
2019-01-06T00:31:17.887Z,2.63
2019-01-06T00:34:04.084Z,2.70
2019-01-06T00:36:34.155Z,2.23
2019-01-06T00:39:05.214Z,2.37
2019-01-06T00:41:41.050Z,2.30
2019-01-06T00:44:25.867Z,2.40
2019-01-06T00:47:07.840Z,2.43
2019-01-06T00:49:53.878Z,2.43
2019-01-06T00:52:33.024Z,2.40
2019-01-06T00:55:18.887Z,2.70
2019-01-06T00:57:49.227Z,2.30
2019-01-06T01:00:19.534Z,2.63
2019-01-06T01:02:59.456Z,2.60
2019-01-06T01:05:38.906Z,2.43
2019-01-06T01:08:25.346Z,2.30
2019-01-06T01:11:08.571Z,2.80
2019-01-06T01:13:38.907Z,2.30
2019-01-06T01:16:26.846Z,2.40
2019-01-06T01:19:14.472Z,2.43
2019-01-06T01:21:54.063Z,2.67
2019-01-06T01:24:31.104Z,2.50
2019-01-06T01:27:12.283Z,2.37
2019-01-06T01:29:43.575Z,2.30
2019-01-06T01:32:24.307Z,2.43
2019-01-06T01:35:14.445Z,2.07
2019-01-06T01:37:47.732Z,2.23
2019-01-06T01:40:19.431Z,2.27
2019-01-06T01:43:07.475Z,2.50
2019-01-06T01:45:54.165Z,2.70
2019-01-06T01:48:40.707Z,2.30
2019-01-06T01:51:10.825Z,2.17
2019-01-06T01:53:59.870Z,2.17
2019-01-06T01:56:30.746Z,2.20
2019-01-06T01:59:17.101Z,2.33
2019-01-06T02:01:50.183Z,2.10
2019-01-06T02:04:24.545Z,2.20
2019-01-06T02:06:59.287Z,2.10
2019-01-06T02:09:45.855Z,2.23
2019-01-06T02:12:15.923Z,2.33
2019-01-06T02:14:48.747Z,2.40
2019-01-06T02:17:34.182Z,2.00
2019-01-06T02:20:06.367Z,2.37
2019-01-06T02:22:49.079Z,1.97
2019-01-06T02:25:20.216Z,2.27
2019-01-06T02:27:56.359Z,2.30
2019-01-06T02:30:32.381Z,2.20
2019-01-06T02:33:19.698Z,2.20
2019-01-06T02:35:52.655Z,2.40
2019-01-06T02:38:38.894Z,2.43
2019-01-06T02:41:25.100Z,2.40
2019-01-06T02:44:11.553Z,2.37
2019-01-06T02:46:51.148Z,2.60
2019-01-06T02:49:36.318Z,2.10
2019-01-06T02:52:22.684Z,2.37
2019-01-06T02:54:52.720Z,1.87
2019-01-06T02:57:34.598Z,2.50
2019-01-06T03:00:07.642Z,2.43
2019-01-06T03:02:38.692Z,2.23
2019-01-06T03:05:08.999Z,2.00
2019-01-06T03:07:47.271Z,2.00
2019-01-06T03:10:36.130Z,1.90
2019-01-06T03:13:22.595Z,2.27
2019-01-06T03:15:53.239Z,2.40
2019-01-06T03:18:38.893Z,2.10
2019-01-06T03:21:11.394Z,1.77
2019-01-06T03:23:44.173Z,2.03
2019-01-06T03:26:20.238Z,2.10
2019-01-06T03:29:07.327Z,2.10
2019-01-06T03:31:52.481Z,1.90
2019-01-06T03:34:27.417Z,1.93
2019-01-06T03:37:16.609Z,2.17
2019-01-06T03:39:55.206Z,1.80
2019-01-06T03:42:25.243Z,1.80
2019-01-06T03:45:12.219Z,2.00
2019-01-06T03:47:45.179Z,2.00
2019-01-06T03:50:24.284Z,2.20
2019-01-06T03:53:00.062Z,2.00
2019-01-06T03:55:46.296Z,2.00
2019-01-06T03:58:32.677Z,2.17
2019-01-06T04:01:20.923Z,2.10
2019-01-06T04:03:52.386Z,1.90
2019-01-06T04:06:38.762Z,1.90
2019-01-06T04:09:24.931Z,1.57
2019-01-06T04:11:57.655Z,1.80
2019-01-06T04:14:32.181Z,2.00
2019-01-06T04:17:11.019Z,1.80
2019-01-06T04:19:41.051Z,1.67
2019-01-06T04:22:11.120Z,2.00
2019-01-06T04:24:57.087Z,1.80
2019-01-06T04:27:28.796Z,1.87
2019-01-06T04:30:07.420Z,1.60
2019-01-06T04:32:53.493Z,1.77
2019-01-06T04:35:35.580Z,1.70
2019-01-06T04:38:21.698Z,1.70
2019-01-06T04:40:51.728Z,1.77
2019-01-06T04:43:24.853Z,1.80
2019-01-06T04:46:00.908Z,1.60
2019-01-06T04:48:47.803Z,1.90
2019-01-06T04:51:23.862Z,1.90
2019-01-06T04:54:01.503Z,1.77
2019-01-06T04:56:37.663Z,1.90
2019-01-06T04:59:10.813Z,1.70
2019-01-06T05:01:50.220Z,1.73
2019-01-06T05:04:20.419Z,1.67
2019-01-06T05:07:02.314Z,1.70
2019-01-06T05:09:32.379Z,1.63
2019-01-06T05:12:05.130Z,1.90
2019-01-06T05:14:49.898Z,1.90
2019-01-06T05:17:36.116Z,1.70
2019-01-06T05:20:22.687Z,1.90
2019-01-06T05:22:55.433Z,1.70
2019-01-06T05:25:37.376Z,1.90
2019-01-06T05:28:13.594Z,1.83
2019-01-06T05:30:55.644Z,1.50
2019-01-06T05:33:40.532Z,1.73
2019-01-06T05:36:26.748Z,1.73
2019-01-06T05:39:12.832Z,1.73
2019-01-06T05:41:51.923Z,1.50
2019-01-06T05:44:21.954Z,2.03
2019-01-06T05:47:11.724Z,1.57
2019-01-06T05:49:44.725Z,1.60
2019-01-06T05:52:14.791Z,2.13
2019-01-06T05:55:01.222Z,1.50
2019-01-06T05:57:48.375Z,1.80
2019-01-06T06:00:21.267Z,1.70
2019-01-06T06:02:54.383Z,1.97
2019-01-06T06:05:24.532Z,1.70
2019-01-06T06:08:00.628Z,1.63
2019-01-06T06:10:33.367Z,1.70
2019-01-06T06:13:03.449Z,1.67
2019-01-06T06:15:49.714Z,1.57
2019-01-06T06:18:22.517Z,1.60
2019-01-06T06:20:58.896Z,1.70
2019-01-06T06:23:32.523Z,1.60
2019-01-06T06:26:18.818Z,1.60
2019-01-06T06:28:54.831Z,1.80
2019-01-06T06:31:43.869Z,1.60
2019-01-06T06:34:30.250Z,1.70
2019-01-06T06:37:15.366Z,1.40
2019-01-06T06:39:45.441Z,1.70
2019-01-06T06:42:18.562Z,1.73
2019-01-06T06:44:48.636Z,1.50
2019-01-06T06:47:18.692Z,1.60
2019-01-06T06:49:54.515Z,1.70
2019-01-06T06:52:24.564Z,1.50
2019-01-06T06:55:13.343Z,1.93
2019-01-06T06:58:18.121Z,2.00
2019-01-06T07:01:13.096Z,2.13
2019-01-06T07:04:00.066Z,1.80
2019-01-06T07:06:35.828Z,1.97
2019-01-06T07:09:22.529Z,1.80
2019-01-06T07:11:52.568Z,1.60
2019-01-06T07:14:34.690Z,1.67
2019-01-06T07:17:33.544Z,1.50
2019-01-06T07:20:04.350Z,1.57
2019-01-06T07:22:50.585Z,1.50
2019-01-06T07:25:26.198Z,1.60
2019-01-06T07:28:06.114Z,1.73
2019-01-06T07:30:45.160Z,1.70
2019-01-06T07:33:24.175Z,1.67
2019-01-06T07:36:10.201Z,1.73
2019-01-06T07:38:48.875Z,1.60
2019-01-06T07:41:36.751Z,1.67
2019-01-06T07:44:06.783Z,1.63
2019-01-06T07:46:52.774Z,1.57
2019-01-06T07:49:29.323Z,1.60
2019-01-06T07:52:05.448Z,1.63
2019-01-06T07:54:50.422Z,1.67
2019-01-06T07:57:37.635Z,1.70
2019-01-06T08:00:22.373Z,1.57
2019-01-06T08:03:08.757Z,1.60
2019-01-06T08:05:55.110Z,1.90
2019-01-06T08:08:42.012Z,1.50
2019-01-06T08:11:24.131Z,1.17
2019-01-06T08:14:09.360Z,1.60
2019-01-06T08:16:39.421Z,1.67
2019-01-06T08:19:15.266Z,1.30
2019-01-06T08:21:51.123Z,1.20
2019-01-06T08:24:29.956Z,1.50
2019-01-06T08:27:07.230Z,1.37
2019-01-06T08:29:55.454Z,1.33
2019-01-06T08:32:41.292Z,1.47
2019-01-06T08:35:13.788Z,1.40
2019-01-06T08:37:55.763Z,1.40
2019-01-06T08:40:31.439Z,1.60
2019-01-06T08:43:17.500Z,1.40
2019-01-06T08:45:51.351Z,1.20
2019-01-06T08:48:27.094Z,1.50
2019-01-06T08:51:14.336Z,1.33
2019-01-06T08:53:53.477Z,1.40
2019-01-06T08:56:23.530Z,1.20
2019-01-06T08:58:56.315Z,1.13
2019-01-06T09:01:38.212Z,1.30
2019-01-06T09:04:26.452Z,1.20
2019-01-06T09:07:03.968Z,1.40
2019-01-06T09:09:34.808Z,1.40
2019-01-06T09:12:21.360Z,1.60
2019-01-06T09:14:51.668Z,1.80
2019-01-06T09:17:21.728Z,1.30
2019-01-06T09:19:52.163Z,1.43
2019-01-06T09:22:39.148Z,1.30
2019-01-06T09:25:21.307Z,1.73
2019-01-06T09:27:57.262Z,1.60
2019-01-06T09:30:43.480Z,1.30
2019-01-06T09:33:29.524Z,1.37
2019-01-06T09:36:15.453Z,1.27
2019-01-06T09:39:01.336Z,1.30
2019-01-06T09:41:31.806Z,1.13
2019-01-06T09:44:18.480Z,1.13
2019-01-06T09:46:57.365Z,1.40
2019-01-06T09:49:40.068Z,1.03
2019-01-06T09:52:26.138Z,1.30
2019-01-06T09:55:12.247Z,1.30
2019-01-06T09:57:51.661Z,1.33
2019-01-06T10:00:37.573Z,1.60
2019-01-06T10:03:14.849Z,1.20
2019-01-06T10:05:49.384Z,1.20
2019-01-06T10:08:35.680Z,1.20
2019-01-06T10:11:12.691Z,1.20
2019-01-06T10:13:45.692Z,1.30
2019-01-06T10:16:27.551Z,1.40
2019-01-06T10:18:57.630Z,1.03
2019-01-06T10:21:44.177Z,1.20
2019-01-06T10:24:30.272Z,1.20
2019-01-06T10:27:01.481Z,1.40
2019-01-06T10:29:31.669Z,1.23
2019-01-06T10:32:17.726Z,1.50
2019-01-06T10:34:50.567Z,1.17
2019-01-06T10:37:27.363Z,1.10
2019-01-06T10:40:17.114Z,1.27
2019-01-06T10:42:47.173Z,1.30
2019-01-06T10:45:17.484Z,1.20
2019-01-06T10:47:54.071Z,1.40
2019-01-06T10:50:33.684Z,1.43
2019-01-06T10:53:06.575Z,1.20
2019-01-06T10:55:44.035Z,1.23
2019-01-06T10:58:30.279Z,1.03
2019-01-06T11:01:09.515Z,1.33
2019-01-06T11:03:55.964Z,1.30
2019-01-06T11:06:32.478Z,1.13
2019-01-06T11:09:14.310Z,1.33
2019-01-06T11:11:53.142Z,1.30
2019-01-06T11:14:32.002Z,1.40
2019-01-06T11:17:13.902Z,1.30
2019-01-06T11:19:46.899Z,1.40
2019-01-06T11:22:23.030Z,1.60
2019-01-06T11:25:12.258Z,1.33
2019-01-06T11:27:42.723Z,1.40
2019-01-06T11:30:29.032Z,1.50
2019-01-06T11:33:15.290Z,1.30
2019-01-06T11:35:50.998Z,1.30
2019-01-06T11:38:39.070Z,1.40
2019-01-06T11:41:18.627Z,1.30
2019-01-06T11:44:05.037Z,1.50
2019-01-06T11:46:51.027Z,1.20
2019-01-06T11:49:23.787Z,1.20
2019-01-06T11:51:56.709Z,1.70
2019-01-06T11:54:42.890Z,1.73
2019-01-06T11:57:30.962Z,1.90
2019-01-06T12:00:03.646Z,2.57
2019-01-06T12:02:45.518Z,1.83
2019-01-06T12:05:34.639Z,1.60
2019-01-06T12:08:22.025Z,2.10
2019-01-06T12:11:07.091Z,1.80
2019-01-06T12:13:54.600Z,2.20
2019-01-06T12:16:24.662Z,1.70
2019-01-06T12:19:00.870Z,1.80
2019-01-06T12:21:43.698Z,1.93
2019-01-06T12:24:13.760Z,1.77
2019-01-06T12:26:46.784Z,1.37
2019-01-06T12:29:28.588Z,1.70
2019-01-06T12:32:17.731Z,1.50
2019-01-06T12:35:05.064Z,1.43
2019-01-06T12:37:35.112Z,1.57
2019-01-06T12:40:12.097Z,1.50
2019-01-06T12:42:59.120Z,1.50
2019-01-06T12:45:34.904Z,1.37
2019-01-06T12:48:05.761Z,1.40
2019-01-06T12:50:41.946Z,1.67
2019-01-06T12:53:18.251Z,1.80
2019-01-06T12:56:03.198Z,1.37
2019-01-06T12:58:52.598Z,1.73
2019-01-06T13:01:28.440Z,1.37
2019-01-06T13:04:16.435Z,1.40
2019-01-06T13:06:47.824Z,1.30
2019-01-06T13:09:20.780Z,1.40
2019-01-06T13:11:56.848Z,1.20
2019-01-06T13:14:43.146Z,1.50
2019-01-06T13:17:29.391Z,1.40
2019-01-06T13:20:15.457Z,1.43
2019-01-06T13:22:45.784Z,1.13
2019-01-06T13:25:22.907Z,1.40
2019-01-06T13:27:53.969Z,1.30
2019-01-06T13:30:26.865Z,1.30
2019-01-06T13:33:02.630Z,1.30
2019-01-06T13:35:48.688Z,1.20
2019-01-06T13:38:33.912Z,1.33
2019-01-06T13:41:09.759Z,1.57
2019-01-06T13:43:48.776Z,1.30
2019-01-06T13:46:24.792Z,1.37
2019-01-06T13:49:09.674Z,1.47
2019-01-06T13:51:56.069Z,1.37
2019-01-06T13:54:42.529Z,1.40
2019-01-06T13:57:30.491Z,1.40
2019-01-06T14:00:16.596Z,1.20
2019-01-06T14:03:04.386Z,1.47
2019-01-06T14:05:34.475Z,1.27
2019-01-06T14:08:21.500Z,1.20
2019-01-06T14:11:06.661Z,1.50
2019-01-06T14:13:36.776Z,1.40
2019-01-06T14:16:24.553Z,1.33
2019-01-06T14:19:00.868Z,1.20
2019-01-06T14:21:31.496Z,1.20
2019-01-06T14:24:01.558Z,1.20
2019-01-06T14:26:38.440Z,1.20
2019-01-06T14:29:20.432Z,1.17
2019-01-06T14:32:06.767Z,1.20
2019-01-06T14:34:46.001Z,1.30
2019-01-06T14:37:24.824Z,1.03
2019-01-06T14:40:00.475Z,1.20
2019-01-06T14:42:46.798Z,1.23
2019-01-06T14:45:16.872Z,0.90
2019-01-06T14:48:01.657Z,1.30
2019-01-06T14:50:49.262Z,1.00
2019-01-06T14:53:24.123Z,1.30
2019-01-06T14:55:54.230Z,0.80
2019-01-06T14:58:27.603Z,1.20
2019-01-06T15:01:00.631Z,0.97
2019-01-06T15:03:30.662Z,1.10
2019-01-06T15:06:15.590Z,1.10
2019-01-06T15:08:51.354Z,1.20
2019-01-06T15:11:27.425Z,1.03
2019-01-06T15:14:00.400Z,0.90
2019-01-06T15:16:38.696Z,1.30
2019-01-06T15:19:13.028Z,1.13
2019-01-06T15:21:59.496Z,1.40
2019-01-06T15:24:35.476Z,1.37
2019-01-06T15:27:05.500Z,0.90
2019-01-06T15:29:38.257Z,1.60
2019-01-06T15:32:08.328Z,1.03
2019-01-06T15:34:54.455Z,1.20
2019-01-06T15:37:27.411Z,1.20
2019-01-06T15:40:13.823Z,1.17
2019-01-06T15:42:59.659Z,1.00
2019-01-06T15:45:35.698Z,1.23
2019-01-06T15:48:08.431Z,1.10
2019-01-06T15:50:38.579Z,1.27
2019-01-06T15:53:24.900Z,1.20
2019-01-06T15:55:55.230Z,1.03
2019-01-06T15:58:41.988Z,1.40
2019-01-06T16:01:20.004Z,1.20
2019-01-06T16:04:02.158Z,1.20
2019-01-06T16:06:35.040Z,1.27
2019-01-06T16:09:07.685Z,1.20
2019-01-06T16:11:54.002Z,1.20
2019-01-06T16:14:24.067Z,1.33
2019-01-06T16:17:05.968Z,1.30
2019-01-06T16:19:38.984Z,1.43
2019-01-06T16:22:25.406Z,1.40
2019-01-06T16:25:10.575Z,1.43
2019-01-06T16:27:40.610Z,1.80
2019-01-06T16:30:28.177Z,1.57
2019-01-06T16:33:15.301Z,2.10
2019-01-06T16:36:02.118Z,1.83
2019-01-06T16:38:47.730Z,1.60
2019-01-06T16:41:36.151Z,1.40
2019-01-06T16:44:10.674Z,1.67
2019-01-06T16:46:52.508Z,1.53
2019-01-06T16:49:39.014Z,1.90
2019-01-06T16:52:12.051Z,1.67
2019-01-06T16:54:42.659Z,1.47
2019-01-06T16:57:18.447Z,1.77
2019-01-06T17:00:00.404Z,1.50
2019-01-06T17:02:46.359Z,2.00
2019-01-06T17:05:25.875Z,1.67
2019-01-06T17:07:58.218Z,1.80
2019-01-06T17:10:44.351Z,1.80
2019-01-06T17:13:17.172Z,1.80
2019-01-06T17:16:03.159Z,1.73
2019-01-06T17:18:49.628Z,1.53
2019-01-06T17:21:22.477Z,1.50
2019-01-06T17:23:55.293Z,1.47
2019-01-06T17:26:28.305Z,1.90
2019-01-06T17:29:04.233Z,1.63
2019-01-06T17:31:50.312Z,1.90
2019-01-06T17:34:29.119Z,1.57
2019-01-06T17:37:02.108Z,1.50
2019-01-06T17:39:35.276Z,1.33
2019-01-06T17:42:17.710Z,1.57
2019-01-06T17:44:57.172Z,2.20
2019-01-06T17:47:44.304Z,1.70
2019-01-06T17:50:28.324Z,1.60
2019-01-06T17:53:18.569Z,1.80
2019-01-06T17:55:56.039Z,1.50
2019-01-06T17:58:28.968Z,1.43
2019-01-06T18:01:05.917Z,1.30
2019-01-06T18:03:52.086Z,2.97
2019-01-06T18:06:22.139Z,2.80
2019-01-06T18:09:08.451Z,1.97
2019-01-06T18:11:47.889Z,1.90
2019-01-06T18:14:23.575Z,1.83
2019-01-06T18:17:12.614Z,1.40
2019-01-06T18:19:43.694Z,1.50
2019-01-06T18:22:16.442Z,1.33
2019-01-06T18:25:02.561Z,1.27
2019-01-06T18:27:44.452Z,1.23
2019-01-06T18:30:14.496Z,1.10
2019-01-06T18:33:00.578Z,0.90
2019-01-06T18:35:46.571Z,1.17
2019-01-06T18:38:25.687Z,1.20
2019-01-06T18:41:12.004Z,1.10
2019-01-06T18:43:42.110Z,1.30
2019-01-06T18:46:12.219Z,1.17
2019-01-06T18:48:42.274Z,1.13
2019-01-06T18:51:13.740Z,1.00
2019-01-06T18:53:52.874Z,1.03
2019-01-06T18:56:38.634Z,1.10
2019-01-06T18:59:11.414Z,0.97
2019-01-06T19:01:58.749Z,1.20
2019-01-06T19:04:37.306Z,1.00
2019-01-06T19:07:09.786Z,1.53
2019-01-06T19:09:48.599Z,1.20
2019-01-06T19:12:34.675Z,1.17
2019-01-06T19:15:10.567Z,1.30
2019-01-06T19:17:52.721Z,0.93
2019-01-06T19:20:22.783Z,1.07
2019-01-06T19:23:08.924Z,0.80
2019-01-06T19:25:56.770Z,0.90
2019-01-06T19:28:30.127Z,1.10
2019-01-06T19:31:17.346Z,1.00
2019-01-06T19:33:47.328Z,1.03
2019-01-06T19:36:21.514Z,1.10
2019-01-06T19:38:54.848Z,0.97
2019-01-06T19:41:24.908Z,0.97
2019-01-06T19:44:10.943Z,0.80
2019-01-06T19:46:54.062Z,0.93
2019-01-06T19:49:26.783Z,0.80
2019-01-06T19:52:13.277Z,0.87
2019-01-06T19:54:49.331Z,0.90
2019-01-06T19:57:22.122Z,0.73
2019-01-06T19:59:52.160Z,1.10
2019-01-06T20:02:28.191Z,1.10
2019-01-06T20:05:15.323Z,1.17
2019-01-06T20:07:58.432Z,0.73
2019-01-06T20:10:41.722Z,1.10
2019-01-06T20:13:28.940Z,0.90
2019-01-06T20:16:04.832Z,1.00
2019-01-06T20:18:43.999Z,0.90
2019-01-06T20:21:23.127Z,0.97
2019-01-06T20:23:53.184Z,1.07
2019-01-06T20:26:41.039Z,0.97
2019-01-06T20:29:27.380Z,0.80
2019-01-06T20:32:04.026Z,0.70
2019-01-06T20:34:37.000Z,1.00
2019-01-06T20:37:23.057Z,0.90
2019-01-06T20:39:53.104Z,1.00
2019-01-06T20:42:35.395Z,0.90
2019-01-06T20:45:22.407Z,0.80
2019-01-06T20:47:52.637Z,0.90
2019-01-06T20:50:22.676Z,0.77
2019-01-06T20:53:08.754Z,0.77
2019-01-06T20:55:38.805Z,1.00
2019-01-06T20:58:14.591Z,0.70
2019-01-06T21:00:51.710Z,1.00
2019-01-06T21:03:33.576Z,0.80
2019-01-06T21:06:19.660Z,1.00
2019-01-06T21:08:55.499Z,1.10
2019-01-06T21:11:25.536Z,0.97
2019-01-06T21:13:58.800Z,0.90
2019-01-06T21:16:47.027Z,0.90
2019-01-06T21:19:22.138Z,0.90
2019-01-06T21:21:59.570Z,0.93
2019-01-06T21:24:35.555Z,0.83
2019-01-06T21:27:06.709Z,0.80
2019-01-06T21:29:44.113Z,0.80
2019-01-06T21:32:17.691Z,0.80
2019-01-06T21:34:53.758Z,0.93
2019-01-06T21:37:36.936Z,0.90
2019-01-06T21:40:24.590Z,0.80
2019-01-06T21:42:54.625Z,0.70
2019-01-06T21:45:39.543Z,0.90
2019-01-06T21:48:17.049Z,0.80
2019-01-06T21:50:47.122Z,1.03
2019-01-06T21:53:17.172Z,0.70
2019-01-06T21:55:53.040Z,0.83
2019-01-06T21:58:32.175Z,0.90
2019-01-06T22:01:04.981Z,0.77
2019-01-06T22:03:54.475Z,1.00
2019-01-06T22:06:40.598Z,0.90
2019-01-06T22:09:30.538Z,0.83
2019-01-06T22:12:18.388Z,0.90
2019-01-06T22:15:03.663Z,0.70
2019-01-06T22:17:33.730Z,0.83
2019-01-06T22:20:05.986Z,0.60
2019-01-06T22:22:35.974Z,0.90
2019-01-06T22:25:12.711Z,0.60
2019-01-06T22:27:48.600Z,0.60
2019-01-06T22:30:35.796Z,0.80
2019-01-06T22:33:22.916Z,0.87
2019-01-06T22:36:08.903Z,0.50
2019-01-06T22:38:44.774Z,0.70
2019-01-06T22:41:30.751Z,0.70
2019-01-06T22:44:11.278Z,1.00
2019-01-06T22:46:44.803Z,0.70
2019-01-06T22:49:20.854Z,0.80
2019-01-06T22:51:56.842Z,0.63
2019-01-06T22:54:42.916Z,0.63
2019-01-06T22:57:31.110Z,0.80
2019-01-06T23:00:01.148Z,0.77
2019-01-06T23:02:36.906Z,0.53
2019-01-06T23:05:15.638Z,0.80
2019-01-06T23:07:52.907Z,0.67
2019-01-06T23:10:22.869Z,1.00
2019-01-06T23:13:10.815Z,0.93
2019-01-06T23:15:46.810Z,1.00
2019-01-06T23:18:22.932Z,0.90
2019-01-06T23:21:01.722Z,0.70
2019-01-06T23:23:32.892Z,0.73
2019-01-06T23:26:19.608Z,0.70
2019-01-06T23:29:06.896Z,0.73
2019-01-06T23:31:44.184Z,0.70
2019-01-06T23:34:17.208Z,0.77
2019-01-06T23:36:50.316Z,0.70
2019-01-06T23:39:38.607Z,0.80
2019-01-06T23:42:17.868Z,0.87
2019-01-06T23:44:59.879Z,0.80
2019-01-06T23:47:41.626Z,0.90
2019-01-06T23:50:14.361Z,0.83
2019-01-06T23:53:00.706Z,0.90
2019-01-06T23:55:46.581Z,0.77
2019-01-06T23:58:25.689Z,0.70
